createdAt,value
2019-03-21T00:00:05.196Z,1029.60
2019-03-21T00:01:05.189Z,1029.58
2019-03-21T00:02:05.161Z,1029.59
2019-03-21T00:03:05.144Z,1029.57
2019-03-21T00:04:05.154Z,1029.55
2019-03-21T00:05:05.127Z,1029.59
2019-03-21T00:06:05.135Z,1029.60
2019-03-21T00:07:05.100Z,1029.62
2019-03-21T00:08:05.094Z,1029.60
2019-03-21T00:09:05.111Z,1029.66
2019-03-21T00:10:05.080Z,1029.66
2019-03-21T00:11:05.063Z,1029.62
2019-03-21T00:12:05.068Z,1029.61
2019-03-21T00:13:05.033Z,1029.63
2019-03-21T00:14:07.301Z,1029.61
2019-03-21T00:15:05.015Z,1029.62
2019-03-21T00:16:04.997Z,1029.59
2019-03-21T00:17:05.003Z,1029.65
2019-03-21T00:18:04.980Z,1029.63
2019-03-21T00:19:04.963Z,1029.66
2019-03-21T00:20:04.970Z,1029.64
2019-03-21T00:21:04.958Z,1029.64
2019-03-21T00:22:04.938Z,1029.68
2019-03-21T00:23:04.945Z,1029.57
2019-03-21T00:24:04.908Z,1029.60
2019-03-21T00:25:04.915Z,1029.65
2019-03-21T00:26:04.890Z,1029.59
2019-03-21T00:27:04.884Z,1029.62
2019-03-21T00:28:04.870Z,1029.60
2019-03-21T00:29:04.874Z,1029.57
2019-03-21T00:30:04.880Z,1029.63
2019-03-21T00:31:04.829Z,1029.61
2019-03-21T00:32:04.823Z,1029.61
2019-03-21T00:33:04.811Z,1029.64
2019-03-21T00:34:04.809Z,1029.63
2019-03-21T00:35:04.812Z,1029.65
2019-03-21T00:36:04.773Z,1029.65
2019-03-21T00:37:04.764Z,1029.61
2019-03-21T00:38:04.749Z,1029.57
2019-03-21T00:39:04.740Z,1029.57
2019-03-21T00:40:04.749Z,1029.59
2019-03-21T00:41:04.724Z,1029.59
2019-03-21T00:42:04.701Z,1029.59
2019-03-21T00:43:04.703Z,1029.63
2019-03-21T00:44:04.699Z,1029.64
2019-03-21T00:45:04.680Z,1029.63
2019-03-21T00:46:04.681Z,1029.68
2019-03-21T00:47:04.648Z,1029.69
2019-03-21T00:48:04.692Z,1029.67
2019-03-21T00:49:04.662Z,1029.68
2019-03-21T00:50:04.644Z,1029.66
2019-03-21T00:51:04.629Z,1029.70
2019-03-21T00:52:04.621Z,1029.72
2019-03-21T00:53:04.577Z,1029.74
2019-03-21T00:54:04.623Z,1029.74
2019-03-21T00:55:04.568Z,1029.69
2019-03-21T00:56:04.680Z,1029.70
2019-03-21T00:57:04.561Z,1029.70
2019-03-21T00:58:04.540Z,1029.69
2019-03-21T00:59:04.515Z,1029.67
2019-03-21T01:00:04.555Z,1029.60
2019-03-21T01:01:04.509Z,1029.62
2019-03-21T01:02:04.487Z,1029.57
2019-03-21T01:03:04.489Z,1029.66
2019-03-21T01:04:04.494Z,1029.67
2019-03-21T01:05:04.454Z,1029.64
2019-03-21T01:06:04.919Z,1029.65
2019-03-21T01:07:04.441Z,1029.67
2019-03-21T01:08:04.425Z,1029.64
2019-03-21T01:09:04.407Z,1029.66
2019-03-21T01:10:04.392Z,1029.65
2019-03-21T01:11:04.402Z,1029.66
2019-03-21T01:12:04.387Z,1029.63
2019-03-21T01:13:04.362Z,1029.62
2019-03-21T01:14:04.358Z,1029.62
2019-03-21T01:15:04.375Z,1029.57
2019-03-21T01:16:04.362Z,1029.62
2019-03-21T01:17:04.316Z,1029.59
2019-03-21T01:18:04.299Z,1029.57
2019-03-21T01:19:04.288Z,1029.55
2019-03-21T01:20:04.283Z,1029.58
2019-03-21T01:21:04.298Z,1029.65
2019-03-21T01:22:04.257Z,1029.64
2019-03-21T01:23:04.251Z,1029.62
2019-03-21T01:24:04.235Z,1029.66
2019-03-21T01:25:04.236Z,1029.64
2019-03-21T01:26:04.241Z,1029.64
2019-03-21T01:27:04.193Z,1029.66
2019-03-21T01:28:04.193Z,1029.63
2019-03-21T01:29:04.213Z,1029.59
2019-03-21T01:30:04.166Z,1029.57
2019-03-21T01:31:04.419Z,1029.62
2019-03-21T01:32:04.187Z,1029.58
2019-03-21T01:33:04.135Z,1029.58
2019-03-21T01:34:04.122Z,1029.58
2019-03-21T01:35:04.136Z,1029.60
2019-03-21T01:36:04.104Z,1029.60
2019-03-21T01:37:04.114Z,1029.57
2019-03-21T01:38:04.071Z,1029.56
2019-03-21T01:39:04.058Z,1029.56
2019-03-21T01:40:04.065Z,1029.55
2019-03-21T01:41:04.039Z,1029.55
2019-03-21T01:42:04.049Z,1029.56
2019-03-21T01:43:04.023Z,1029.53
2019-03-21T01:44:04.003Z,1029.50
2019-03-21T01:45:03.999Z,1029.51
2019-03-21T01:46:04.005Z,1029.46
2019-03-21T01:47:03.999Z,1029.45
2019-03-21T01:48:03.979Z,1029.42
2019-03-21T01:49:04.089Z,1029.44
2019-03-21T01:50:03.941Z,1029.42
2019-03-21T01:51:03.936Z,1029.37
2019-03-21T01:52:03.934Z,1029.41
2019-03-21T01:53:03.923Z,1029.41
2019-03-21T01:54:03.895Z,1029.45
2019-03-21T01:55:03.875Z,1029.42
2019-03-21T01:56:03.868Z,1029.39
2019-03-21T01:57:03.907Z,1029.41
2019-03-21T01:58:03.843Z,1029.38
2019-03-21T01:59:03.843Z,1029.38
2019-03-21T02:00:03.827Z,1029.40
2019-03-21T02:01:03.812Z,1029.40
2019-03-21T02:02:03.818Z,1029.42
2019-03-21T02:03:03.785Z,1029.40
2019-03-21T02:04:03.786Z,1029.38
2019-03-21T02:05:03.829Z,1029.36
2019-03-21T02:06:03.761Z,1029.30
2019-03-21T02:07:03.742Z,1029.32
2019-03-21T02:08:03.922Z,1029.31
2019-03-21T02:09:03.727Z,1029.35
2019-03-21T02:10:03.733Z,1029.31
2019-03-21T02:11:03.716Z,1029.30
2019-03-21T02:12:03.683Z,1029.29
2019-03-21T02:13:03.691Z,1029.30
2019-03-21T02:14:03.682Z,1029.28
2019-03-21T02:15:03.660Z,1029.28
2019-03-21T02:16:03.654Z,1029.26
2019-03-21T02:17:03.664Z,1029.33
2019-03-21T02:18:03.660Z,1029.29
2019-03-21T02:19:03.609Z,1029.26
2019-03-21T02:20:03.594Z,1029.26
2019-03-21T02:21:03.611Z,1029.21
2019-03-21T02:22:03.591Z,1029.25
2019-03-21T02:23:03.601Z,1029.25
2019-03-21T02:24:03.554Z,1029.24
2019-03-21T02:25:03.539Z,1029.26
2019-03-21T02:26:03.538Z,1029.23
2019-03-21T02:27:03.515Z,1029.20
2019-03-21T02:28:03.552Z,1029.23
2019-03-21T02:29:03.502Z,1029.21
2019-03-21T02:30:03.496Z,1029.23
2019-03-21T02:31:03.498Z,1029.20
2019-03-21T02:32:03.474Z,1029.14
2019-03-21T02:33:03.452Z,1029.18
2019-03-21T02:34:03.475Z,1029.15
2019-03-21T02:35:03.445Z,1029.18
2019-03-21T02:36:03.420Z,1029.16
2019-03-21T02:37:03.413Z,1029.16
2019-03-21T02:38:03.396Z,1029.15
2019-03-21T02:39:03.404Z,1029.13
2019-03-21T02:40:03.375Z,1029.17
2019-03-21T02:41:03.368Z,1029.16
2019-03-21T02:42:03.345Z,1029.08
2019-03-21T02:43:03.343Z,1029.14
2019-03-21T02:44:03.348Z,1029.13
2019-03-21T02:45:08.928Z,1029.12
2019-03-21T02:46:04.340Z,1029.12
2019-03-21T02:47:03.288Z,1029.10
2019-03-21T02:48:03.292Z,1029.16
2019-03-21T02:49:03.296Z,1029.11
2019-03-21T02:50:03.298Z,1029.08
2019-03-21T02:51:03.262Z,1029.08
2019-03-21T02:52:04.417Z,1029.10
2019-03-21T02:53:03.226Z,1029.13
2019-03-21T02:54:03.247Z,1029.12
2019-03-21T02:55:03.212Z,1029.10
2019-03-21T02:56:03.209Z,1029.10
2019-03-21T02:57:03.182Z,1029.11
2019-03-21T02:58:03.177Z,1029.12
2019-03-21T02:59:03.190Z,1029.10
2019-03-21T03:00:03.163Z,1029.11
2019-03-21T03:01:03.142Z,1029.10
2019-03-21T03:02:03.133Z,1029.08
2019-03-21T03:03:03.117Z,1029.13
2019-03-21T03:04:03.122Z,1029.12
2019-03-21T03:05:03.096Z,1029.13
2019-03-21T03:06:03.107Z,1029.16
2019-03-21T03:07:03.082Z,1029.14
2019-03-21T03:08:03.058Z,1029.10
2019-03-21T03:09:03.078Z,1029.14
2019-03-21T03:10:03.036Z,1029.13
2019-03-21T03:11:03.030Z,1029.15
2019-03-21T03:12:03.029Z,1029.15
2019-03-21T03:13:02.997Z,1029.17
2019-03-21T03:14:04.662Z,1029.13
2019-03-21T03:15:03.000Z,1029.16
2019-03-21T03:16:02.964Z,1029.15
2019-03-21T03:17:02.961Z,1029.13
2019-03-21T03:18:02.973Z,1029.16
2019-03-21T03:19:02.974Z,1029.16
2019-03-21T03:20:02.940Z,1029.18
2019-03-21T03:21:02.935Z,1029.18
2019-03-21T03:22:02.930Z,1029.23
2019-03-21T03:23:02.889Z,1029.22
2019-03-21T03:24:02.903Z,1029.22
2019-03-21T03:25:02.864Z,1029.25
2019-03-21T03:26:02.873Z,1029.18
2019-03-21T03:27:02.910Z,1029.21
2019-03-21T03:28:02.828Z,1029.17
2019-03-21T03:29:02.851Z,1029.22
2019-03-21T03:30:02.849Z,1029.23
2019-03-21T03:31:02.817Z,1029.21
2019-03-21T03:32:02.797Z,1029.22
2019-03-21T03:33:02.825Z,1029.24
2019-03-21T03:34:02.820Z,1029.19
2019-03-21T03:35:02.773Z,1029.23
2019-03-21T03:36:02.754Z,1029.27
2019-03-21T03:37:02.742Z,1029.29
2019-03-21T03:38:02.734Z,1029.27
2019-03-21T03:39:02.744Z,1029.31
2019-03-21T03:40:02.693Z,1029.33
2019-03-21T03:41:02.699Z,1029.33
2019-03-21T03:42:02.673Z,1029.34
2019-03-21T03:43:02.667Z,1029.30
2019-03-21T03:44:02.685Z,1029.28
2019-03-21T03:45:02.644Z,1029.32
2019-03-21T03:46:02.652Z,1029.35
2019-03-21T03:47:02.616Z,1029.36
2019-03-21T03:48:02.609Z,1029.31
2019-03-21T03:49:02.615Z,1029.30
2019-03-21T03:50:02.584Z,1029.35
2019-03-21T03:51:02.569Z,1029.35
2019-03-21T03:52:02.568Z,1029.38
2019-03-21T03:53:02.550Z,1029.36
2019-03-21T03:54:02.553Z,1029.34
2019-03-21T03:55:02.539Z,1029.34
2019-03-21T03:56:02.521Z,1029.39
2019-03-21T03:57:02.512Z,1029.35
2019-03-21T03:58:02.516Z,1029.33
2019-03-21T03:59:02.522Z,1029.28
2019-03-21T04:00:02.482Z,1029.31
2019-03-21T04:01:02.474Z,1029.33
2019-03-21T04:02:02.446Z,1029.34
2019-03-21T04:03:02.453Z,1029.32
2019-03-21T04:04:02.456Z,1029.31
2019-03-21T04:05:02.419Z,1029.31
2019-03-21T04:06:02.421Z,1029.27
2019-03-21T04:07:02.434Z,1029.31
2019-03-21T04:08:02.405Z,1029.33
2019-03-21T04:09:02.407Z,1029.33
2019-03-21T04:10:02.368Z,1029.33
2019-03-21T04:11:02.359Z,1029.31
2019-03-21T04:12:02.375Z,1029.33
2019-03-21T04:13:02.354Z,1029.31
2019-03-21T04:14:02.365Z,1029.34
2019-03-21T04:15:02.315Z,1029.33
2019-03-21T04:16:02.297Z,1029.33
2019-03-21T04:17:02.292Z,1029.34
2019-03-21T04:18:02.288Z,1029.33
2019-03-21T04:19:02.292Z,1029.38
2019-03-21T04:20:02.276Z,1029.36
2019-03-21T04:21:02.258Z,1029.35
2019-03-21T04:22:02.236Z,1029.35
2019-03-21T04:23:02.236Z,1029.36
2019-03-21T04:24:02.231Z,1029.37
2019-03-21T04:25:02.243Z,1029.41
2019-03-21T04:26:02.197Z,1029.37
2019-03-21T04:27:02.170Z,1029.40
2019-03-21T04:28:02.269Z,1029.35
2019-03-21T04:29:02.171Z,1029.37
2019-03-21T04:30:02.145Z,1029.38
2019-03-21T04:31:02.132Z,1029.35
2019-03-21T04:32:02.157Z,1029.35
2019-03-21T04:33:02.112Z,1029.37
2019-03-21T04:34:02.115Z,1029.34
2019-03-21T04:35:02.116Z,1029.35
2019-03-21T04:36:02.099Z,1029.33
2019-03-21T04:37:02.069Z,1029.37
2019-03-21T04:38:02.058Z,1029.37
2019-03-21T04:39:02.275Z,1029.35
2019-03-21T04:40:02.034Z,1029.40
2019-03-21T04:41:02.034Z,1029.41
2019-03-21T04:42:02.029Z,1029.43
2019-03-21T04:43:02.006Z,1029.36
2019-03-21T04:44:02.021Z,1029.42
2019-03-21T04:45:01.978Z,1029.41
2019-03-21T04:46:03.725Z,1029.37
2019-03-21T04:47:01.961Z,1029.39
2019-03-21T04:48:01.967Z,1029.40
2019-03-21T04:49:02.006Z,1029.39
2019-03-21T04:50:01.983Z,1029.39
2019-03-21T04:51:01.923Z,1029.44
2019-03-21T04:52:01.918Z,1029.45
2019-03-21T04:53:01.884Z,1029.42
2019-03-21T04:54:01.934Z,1029.47
2019-03-21T04:55:01.891Z,1029.41
2019-03-21T04:56:01.866Z,1029.46
2019-03-21T04:57:01.855Z,1029.47
2019-03-21T04:58:01.838Z,1029.49
2019-03-21T04:59:01.857Z,1029.54
2019-03-21T05:00:03.684Z,1029.50
2019-03-21T05:01:02.054Z,1029.48
2019-03-21T05:02:01.774Z,1029.47
2019-03-21T05:03:01.788Z,1029.49
2019-03-21T05:04:01.952Z,1029.45
2019-03-21T05:05:01.771Z,1029.47
2019-03-21T05:06:01.738Z,1029.43
2019-03-21T05:07:01.759Z,1029.40
2019-03-21T05:08:01.734Z,1029.40
2019-03-21T05:09:01.715Z,1029.45
2019-03-21T05:10:01.825Z,1029.53
2019-03-21T05:11:01.816Z,1029.48
2019-03-21T05:12:01.683Z,1029.44
2019-03-21T05:13:01.652Z,1029.51
2019-03-21T05:14:01.686Z,1029.48
2019-03-21T05:15:01.660Z,1029.47
2019-03-21T05:16:01.621Z,1029.50
2019-03-21T05:17:01.623Z,1029.49
2019-03-21T05:18:01.623Z,1029.47
2019-03-21T05:19:01.588Z,1029.50
2019-03-21T05:20:01.620Z,1029.48
2019-03-21T05:21:01.573Z,1029.47
2019-03-21T05:22:01.560Z,1029.47
2019-03-21T05:23:01.565Z,1029.44
2019-03-21T05:24:01.533Z,1029.49
2019-03-21T05:25:01.537Z,1029.48
2019-03-21T05:26:03.928Z,1029.53
2019-03-21T05:27:01.502Z,1029.51
2019-03-21T05:28:01.500Z,1029.50
2019-03-21T05:29:01.496Z,1029.55
2019-03-21T05:30:01.513Z,1029.52
2019-03-21T05:31:01.454Z,1029.53
2019-03-21T05:32:03.666Z,1029.50
2019-03-21T05:33:01.438Z,1029.48
2019-03-21T05:34:01.436Z,1029.49
2019-03-21T05:35:01.448Z,1029.47
2019-03-21T05:36:01.394Z,1029.46
2019-03-21T05:37:01.409Z,1029.45
2019-03-21T05:38:01.391Z,1029.49
2019-03-21T05:39:01.367Z,1029.51
2019-03-21T05:40:01.400Z,1029.51
2019-03-21T05:41:01.361Z,1029.46
2019-03-21T05:42:01.341Z,1029.49
2019-03-21T05:43:01.339Z,1029.50
2019-03-21T05:44:01.329Z,1029.48
2019-03-21T05:45:01.513Z,1029.43
2019-03-21T05:46:01.296Z,1029.47
2019-03-21T05:47:01.295Z,1029.51
2019-03-21T05:48:01.266Z,1029.46
2019-03-21T05:49:01.265Z,1029.50
2019-03-21T05:50:01.294Z,1029.53
2019-03-21T05:51:01.238Z,1029.51
2019-03-21T05:52:01.221Z,1029.56
2019-03-21T05:53:01.201Z,1029.53
2019-03-21T05:54:01.206Z,1029.55
2019-03-21T05:55:01.207Z,1029.58
2019-03-21T05:56:01.192Z,1029.59
2019-03-21T05:57:01.185Z,1029.59
2019-03-21T05:58:01.149Z,1029.59
2019-03-21T05:59:01.142Z,1029.63
2019-03-21T06:00:01.156Z,1029.60
2019-03-21T06:01:01.108Z,1029.62
2019-03-21T06:02:01.107Z,1029.61
2019-03-21T06:03:01.116Z,1029.59
2019-03-21T06:04:01.105Z,1029.60
2019-03-21T06:05:01.261Z,1029.57
2019-03-21T06:06:01.088Z,1029.61
2019-03-21T06:07:01.035Z,1029.65
2019-03-21T06:08:01.039Z,1029.66
2019-03-21T06:09:01.019Z,1029.66
2019-03-21T06:10:01.004Z,1029.61
2019-03-21T06:11:01.018Z,1029.59
2019-03-21T06:12:00.980Z,1029.63
2019-03-21T06:13:00.981Z,1029.60
2019-03-21T06:14:00.987Z,1029.62
2019-03-21T06:15:00.958Z,1029.65
2019-03-21T06:16:01.151Z,1029.67
2019-03-21T06:17:00.947Z,1029.68
2019-03-21T06:18:00.915Z,1029.64
2019-03-21T06:19:00.921Z,1029.65
2019-03-21T06:20:03.763Z,1029.66
2019-03-21T06:21:00.916Z,1029.67
2019-03-21T06:22:00.873Z,1029.69
2019-03-21T06:23:00.896Z,1029.75
2019-03-21T06:24:00.852Z,1029.73
2019-03-21T06:25:00.856Z,1029.72
2019-03-21T06:26:00.857Z,1029.76
2019-03-21T06:27:00.864Z,1029.78
2019-03-21T06:28:00.827Z,1029.84
2019-03-21T06:29:00.810Z,1029.81
2019-03-21T06:30:00.809Z,1029.84
2019-03-21T06:31:00.814Z,1029.83
2019-03-21T06:32:00.777Z,1029.83
2019-03-21T06:33:00.768Z,1029.82
2019-03-21T06:34:00.746Z,1029.82
2019-03-21T06:35:00.722Z,1029.79
2019-03-21T06:36:00.793Z,1029.80
2019-03-21T06:37:00.709Z,1029.85
2019-03-21T06:38:00.692Z,1029.86
2019-03-21T06:39:00.687Z,1029.90
2019-03-21T06:40:00.681Z,1029.95
2019-03-21T06:41:00.691Z,1029.95
2019-03-21T06:42:00.644Z,1029.88
2019-03-21T06:43:00.632Z,1029.91
2019-03-21T06:44:00.626Z,1029.95
2019-03-21T06:45:00.619Z,1029.93
2019-03-21T06:46:00.622Z,1029.97
2019-03-21T06:47:00.586Z,1029.98
2019-03-21T06:48:00.567Z,1029.98
2019-03-21T06:49:00.568Z,1030.00
2019-03-21T06:50:00.549Z,1030.02
2019-03-21T06:51:00.547Z,1030.01
2019-03-21T06:52:00.551Z,1030.03
2019-03-21T06:53:03.128Z,1030.04
2019-03-21T06:54:00.527Z,1030.06
2019-03-21T06:55:00.505Z,1030.02
2019-03-21T06:56:00.477Z,1030.05
2019-03-21T06:57:02.508Z,1030.01
2019-03-21T06:58:00.457Z,1030.00
2019-03-21T06:59:00.460Z,1030.01
2019-03-21T07:00:00.442Z,1030.00
2019-03-21T07:01:00.435Z,1030.01
2019-03-21T07:02:00.445Z,1030.01
2019-03-21T07:03:00.408Z,1030.01
2019-03-21T07:04:06.966Z,1030.00
2019-03-21T07:05:01.387Z,1030.02
2019-03-21T07:06:00.367Z,1030.00
2019-03-21T07:07:08.143Z,1030.02
2019-03-21T07:08:01.350Z,1030.08
2019-03-21T07:09:00.346Z,1030.06
2019-03-21T07:10:00.368Z,1030.05
2019-03-21T07:11:00.309Z,1030.08
2019-03-21T07:12:00.335Z,1030.08
2019-03-21T07:13:00.284Z,1030.06
2019-03-21T07:14:00.284Z,1030.09
2019-03-21T07:15:00.380Z,1030.11
2019-03-21T07:16:00.261Z,1030.15
2019-03-21T07:17:00.867Z,1030.12
2019-03-21T07:18:00.262Z,1030.14
2019-03-21T07:19:00.216Z,1030.15
2019-03-21T07:20:00.361Z,1030.17
2019-03-21T07:21:01.186Z,1030.14
2019-03-21T07:22:00.182Z,1030.19
2019-03-21T07:23:00.200Z,1030.19
2019-03-21T07:24:00.213Z,1030.23
2019-03-21T07:25:00.485Z,1030.24
2019-03-21T07:26:00.150Z,1030.24
2019-03-21T07:27:00.167Z,1030.24
2019-03-21T07:28:00.129Z,1030.25
2019-03-21T07:29:00.100Z,1030.27
2019-03-21T07:30:00.141Z,1030.22
2019-03-21T07:31:00.085Z,1030.24
2019-03-21T07:32:00.087Z,1030.26
2019-03-21T07:33:00.071Z,1030.28
2019-03-21T07:34:00.077Z,1030.27
2019-03-21T07:35:00.044Z,1030.28
2019-03-21T07:36:00.029Z,1030.30
2019-03-21T07:37:00.023Z,1030.29
2019-03-21T07:38:00.018Z,1030.33
2019-03-21T07:39:00.025Z,1030.34
2019-03-21T07:39:59.985Z,1030.36
2019-03-21T07:41:00.194Z,1030.38
2019-03-21T07:42:01.136Z,1030.38
2019-03-21T07:42:59.971Z,1030.46
2019-03-21T07:43:59.985Z,1030.45
2019-03-21T07:44:59.939Z,1030.50
2019-03-21T07:45:59.917Z,1030.46
2019-03-21T07:47:11.828Z,1030.49
2019-03-21T07:48:00.907Z,1030.45
2019-03-21T07:48:59.897Z,1030.49
2019-03-21T07:49:59.944Z,1030.48
2019-03-21T07:50:59.853Z,1030.42
2019-03-21T07:51:59.853Z,1030.42
2019-03-21T07:52:59.837Z,1030.41
2019-03-21T07:53:59.826Z,1030.42
2019-03-21T07:54:59.833Z,1030.51
2019-03-21T07:55:59.811Z,1030.42
2019-03-21T07:56:59.811Z,1030.47
2019-03-21T07:57:59.794Z,1030.45
2019-03-21T07:58:59.773Z,1030.47
2019-03-21T07:59:59.773Z,1030.50
2019-03-21T08:00:59.745Z,1030.43
2019-03-21T08:01:59.739Z,1030.45
2019-03-21T08:02:59.733Z,1030.43
2019-03-21T08:03:59.709Z,1030.41
2019-03-21T08:04:59.728Z,1030.43
2019-03-21T08:05:59.710Z,1030.43
2019-03-21T08:06:59.771Z,1030.46
2019-03-21T08:07:59.670Z,1030.46
2019-03-21T08:08:59.655Z,1030.41
2019-03-21T08:09:59.677Z,1030.45
2019-03-21T08:10:59.638Z,1030.46
2019-03-21T08:11:59.648Z,1030.46
2019-03-21T08:12:59.608Z,1030.47
2019-03-21T08:13:59.600Z,1030.42
2019-03-21T08:14:59.600Z,1030.45
2019-03-21T08:15:59.587Z,1030.48
2019-03-21T08:16:59.571Z,1030.46
2019-03-21T08:17:59.596Z,1030.45
2019-03-21T08:18:59.806Z,1030.47
2019-03-21T08:19:59.555Z,1030.46
2019-03-21T08:21:00.181Z,1030.47
2019-03-21T08:21:59.518Z,1030.50
2019-03-21T08:22:59.519Z,1030.48
2019-03-21T08:23:59.537Z,1030.49
2019-03-21T08:24:59.499Z,1030.46
2019-03-21T08:25:59.469Z,1030.46
2019-03-21T08:26:59.451Z,1030.48
2019-03-21T08:27:59.452Z,1030.46
2019-03-21T08:28:59.458Z,1030.47
2019-03-21T08:29:59.467Z,1030.49
2019-03-21T08:30:59.401Z,1030.55
2019-03-21T08:31:59.405Z,1030.45
2019-03-21T08:32:59.395Z,1030.51
2019-03-21T08:33:59.385Z,1030.55
2019-03-21T08:34:59.395Z,1030.57
2019-03-21T08:35:59.350Z,1030.56
2019-03-21T08:36:59.333Z,1030.58
2019-03-21T08:37:59.329Z,1030.57
2019-03-21T08:38:59.330Z,1030.60
2019-03-21T08:39:59.326Z,1030.61
2019-03-21T08:40:59.290Z,1030.60
2019-03-21T08:41:59.281Z,1030.61
2019-03-21T08:42:59.278Z,1030.61
2019-03-21T08:43:59.292Z,1030.65
2019-03-21T08:44:59.270Z,1030.61
2019-03-21T08:45:59.269Z,1030.61
2019-03-21T08:46:59.220Z,1030.59
2019-03-21T08:47:59.216Z,1030.61
2019-03-21T08:48:59.531Z,1030.61
2019-03-21T08:49:59.202Z,1030.62
2019-03-21T08:51:07.812Z,1030.66
2019-03-21T08:52:00.165Z,1030.63
2019-03-21T08:52:59.149Z,1030.64
2019-03-21T08:53:59.182Z,1030.66
2019-03-21T08:54:59.139Z,1030.64
2019-03-21T08:55:59.131Z,1030.64
2019-03-21T08:56:59.135Z,1030.61
2019-03-21T08:57:59.098Z,1030.60
2019-03-21T08:58:59.946Z,1030.62
2019-03-21T08:59:59.086Z,1030.63
2019-03-21T09:00:59.087Z,1030.62
2019-03-21T09:01:59.066Z,1030.64
2019-03-21T09:02:59.053Z,1030.64
2019-03-21T09:03:59.033Z,1030.65
2019-03-21T09:04:59.922Z,1030.64
2019-03-21T09:05:59.032Z,1030.68
2019-03-21T09:06:59.003Z,1030.74
2019-03-21T09:07:59.008Z,1030.77
2019-03-21T09:08:58.988Z,1030.71
2019-03-21T09:09:58.960Z,1030.69
2019-03-21T09:10:58.968Z,1030.69
2019-03-21T09:11:58.949Z,1030.75
2019-03-21T09:12:58.941Z,1030.69
2019-03-21T09:13:58.923Z,1030.70
2019-03-21T09:14:58.908Z,1030.68
2019-03-21T09:15:58.920Z,1030.69
2019-03-21T09:16:58.881Z,1030.63
2019-03-21T09:17:58.890Z,1030.67
2019-03-21T09:18:58.886Z,1030.69
2019-03-21T09:19:59.023Z,1030.69
2019-03-21T09:20:58.902Z,1030.73
2019-03-21T09:21:58.933Z,1030.70
2019-03-21T09:22:58.813Z,1030.78
2019-03-21T09:23:58.811Z,1030.73
2019-03-21T09:24:58.822Z,1030.73
2019-03-21T09:25:58.777Z,1030.71
2019-03-21T09:26:58.811Z,1030.70
2019-03-21T09:28:02.763Z,1030.68
2019-03-21T09:28:58.749Z,1030.67
2019-03-21T09:29:58.792Z,1030.68
2019-03-21T09:30:58.735Z,1030.67
2019-03-21T09:31:58.921Z,1030.67
2019-03-21T09:32:58.711Z,1030.67
2019-03-21T09:33:58.703Z,1030.68
2019-03-21T09:34:58.701Z,1030.75
2019-03-21T09:35:58.700Z,1030.71
2019-03-21T09:36:58.717Z,1030.69
2019-03-21T09:37:58.659Z,1030.68
2019-03-21T09:38:58.640Z,1030.69
2019-03-21T09:39:58.626Z,1030.68
2019-03-21T09:40:58.639Z,1030.66
2019-03-21T09:41:58.654Z,1030.65
2019-03-21T09:42:58.615Z,1030.66
2019-03-21T09:43:58.592Z,1030.63
2019-03-21T09:44:58.597Z,1030.62
2019-03-21T09:45:58.571Z,1030.63
2019-03-21T09:46:58.586Z,1030.56
2019-03-21T09:47:58.605Z,1030.61
2019-03-21T09:48:58.527Z,1030.61
2019-03-21T09:49:59.383Z,1030.59
2019-03-21T09:50:58.515Z,1030.64
2019-03-21T09:51:58.526Z,1030.58
2019-03-21T09:52:58.517Z,1030.64
2019-03-21T09:54:09.228Z,1030.58
2019-03-21T09:54:59.488Z,1030.59
2019-03-21T09:55:58.463Z,1030.59
2019-03-21T09:56:58.473Z,1030.56
2019-03-21T09:57:58.441Z,1030.55
2019-03-21T09:58:58.439Z,1030.60
2019-03-21T09:59:58.439Z,1030.58
2019-03-21T10:00:58.396Z,1030.58
2019-03-21T10:01:58.436Z,1030.61
2019-03-21T10:02:58.431Z,1030.60
2019-03-21T10:03:58.383Z,1030.59
2019-03-21T10:04:58.367Z,1030.56
2019-03-21T10:05:58.367Z,1030.57
2019-03-21T10:06:58.321Z,1030.50
2019-03-21T10:07:59.547Z,1030.56
2019-03-21T10:08:58.322Z,1030.56
2019-03-21T10:09:58.302Z,1030.54
2019-03-21T10:10:58.293Z,1030.53
2019-03-21T10:11:58.268Z,1030.55
2019-03-21T10:12:58.273Z,1030.51
2019-03-21T10:13:58.261Z,1030.54
2019-03-21T10:14:58.257Z,1030.54
2019-03-21T10:15:58.227Z,1030.54
2019-03-21T10:16:58.229Z,1030.51
2019-03-21T10:17:58.240Z,1030.54
2019-03-21T10:18:58.207Z,1030.53
2019-03-21T10:19:58.189Z,1030.48
2019-03-21T10:20:58.166Z,1030.53
2019-03-21T10:21:58.268Z,1030.56
2019-03-21T10:22:58.163Z,1030.52
2019-03-21T10:23:58.143Z,1030.56
2019-03-21T10:24:58.130Z,1030.54
2019-03-21T10:25:58.137Z,1030.58
2019-03-21T10:26:58.104Z,1030.58
2019-03-21T10:27:58.105Z,1030.58
2019-03-21T10:28:58.116Z,1030.57
2019-03-21T10:29:58.073Z,1030.58
2019-03-21T10:30:58.071Z,1030.59
2019-03-21T10:31:58.071Z,1030.55
2019-03-21T10:32:58.034Z,1030.60
2019-03-21T10:33:58.045Z,1030.56
2019-03-21T10:34:58.008Z,1030.62
2019-03-21T10:35:58.011Z,1030.57
2019-03-21T10:36:58.009Z,1030.55
2019-03-21T10:37:58.047Z,1030.56
2019-03-21T10:38:57.980Z,1030.56
2019-03-21T10:39:58.029Z,1030.55
2019-03-21T10:40:57.937Z,1030.57
2019-03-21T10:41:57.936Z,1030.58
2019-03-21T10:42:57.948Z,1030.57
2019-03-21T10:43:57.909Z,1030.53
2019-03-21T10:44:57.957Z,1030.56
2019-03-21T10:45:57.929Z,1030.57
2019-03-21T10:46:57.879Z,1030.52
2019-03-21T10:47:57.864Z,1030.49
2019-03-21T10:48:57.880Z,1030.48
2019-03-21T10:49:57.845Z,1030.48
2019-03-21T10:50:57.848Z,1030.53
2019-03-21T10:51:57.816Z,1030.56
2019-03-21T10:52:57.813Z,1030.51
2019-03-21T10:53:57.828Z,1030.49
2019-03-21T10:54:57.814Z,1030.49
2019-03-21T10:55:57.780Z,1030.54
2019-03-21T10:56:57.777Z,1030.54
2019-03-21T10:57:57.749Z,1030.54
2019-03-21T10:58:57.743Z,1030.52
2019-03-21T10:59:57.729Z,1030.59
2019-03-21T11:00:57.764Z,1030.47
2019-03-21T11:02:06.911Z,1030.50
2019-03-21T11:02:58.687Z,1030.50
2019-03-21T11:03:57.683Z,1030.56
2019-03-21T11:04:57.679Z,1030.55
2019-03-21T11:05:57.685Z,1030.53
2019-03-21T11:06:57.654Z,1030.55
2019-03-21T11:07:57.649Z,1030.48
2019-03-21T11:08:57.619Z,1030.47
2019-03-21T11:09:57.615Z,1030.48
2019-03-21T11:10:57.617Z,1030.45
2019-03-21T11:11:57.708Z,1030.40
2019-03-21T11:12:57.591Z,1030.45
2019-03-21T11:13:57.591Z,1030.42
2019-03-21T11:14:57.550Z,1030.42
2019-03-21T11:15:57.545Z,1030.46
2019-03-21T11:16:57.562Z,1030.42
2019-03-21T11:17:57.515Z,1030.43
2019-03-21T11:18:57.542Z,1030.40
2019-03-21T11:19:57.500Z,1030.35
2019-03-21T11:20:57.487Z,1030.41
2019-03-21T11:22:05.804Z,1030.36
2019-03-21T11:22:58.471Z,1030.39
2019-03-21T11:23:57.547Z,1030.34
2019-03-21T11:24:57.459Z,1030.33
2019-03-21T11:25:57.447Z,1030.27
2019-03-21T11:26:57.470Z,1030.28
2019-03-21T11:27:57.420Z,1030.29
2019-03-21T11:28:57.400Z,1030.35
2019-03-21T11:29:57.402Z,1030.29
2019-03-21T11:30:57.612Z,1030.33
2019-03-21T11:31:58.138Z,1030.31
2019-03-21T11:32:57.373Z,1030.28
2019-03-21T11:33:57.440Z,1030.29
2019-03-21T11:34:57.400Z,1030.23
2019-03-21T11:35:57.344Z,1030.21
2019-03-21T11:36:57.315Z,1030.22
2019-03-21T11:37:57.426Z,1030.18
2019-03-21T11:38:57.287Z,1030.15
2019-03-21T11:39:57.317Z,1030.16
2019-03-21T11:40:57.271Z,1030.18
2019-03-21T11:41:57.278Z,1030.17
2019-03-21T11:42:57.273Z,1030.19
2019-03-21T11:43:57.244Z,1030.22
2019-03-21T11:44:57.232Z,1030.20
2019-03-21T11:45:57.236Z,1030.25
2019-03-21T11:46:57.257Z,1030.20
2019-03-21T11:47:59.548Z,1030.24
2019-03-21T11:48:57.182Z,1030.23
2019-03-21T11:49:57.170Z,1030.26
2019-03-21T11:50:57.210Z,1030.18
2019-03-21T11:51:57.148Z,1030.17
2019-03-21T11:52:57.161Z,1030.14
2019-03-21T11:53:57.119Z,1030.19
2019-03-21T11:54:57.106Z,1030.13
2019-03-21T11:55:57.203Z,1030.19
2019-03-21T11:56:57.087Z,1030.22
2019-03-21T11:57:57.089Z,1030.22
2019-03-21T11:58:57.058Z,1030.20
2019-03-21T11:59:57.127Z,1030.20
2019-03-21T12:00:57.029Z,1030.20
2019-03-21T12:01:57.023Z,1030.20
2019-03-21T12:02:57.026Z,1030.16
2019-03-21T12:03:57.003Z,1030.21
2019-03-21T12:04:56.994Z,1030.15